Time;durP1;ratioP1;P1;durP2;ratioP2;P2;SDS_P1;SDS_P2;PMS_P1;PMS_P2;Temp;Humidity;BMP_temperature;BMP_pressure;BME280_temperature;BME280_humidity;BME280_pressure;Samples;Min_cycle;Max_cycle;Signal;HPM_P1;HPM_P2
2022/01/11 00:01:04;;;;;;;39.63;21.30;;;3.40;99.90;;;;;;5034742;28;20411;-62
2022/01/11 00:03:31;;;;;;;41.07;21.97;;;3.40;99.90;;;;;;5034196;28;20553;-62
2022/01/11 00:06:05;;;;;;;43.93;22.53;;;3.40;99.90;;;;;;5034519;28;20454;-62
2022/01/11 00:08:36;;;;;;;46.87;24.07;;;3.50;99.90;;;;;;5034476;28;20469;-62
2022/01/11 00:11:07;;;;;;;45.40;22.47;;;3.50;99.90;;;;;;5034205;28;20991;-62
2022/01/11 00:13:35;;;;;;;42.10;20.90;;;3.50;99.90;;;;;;5034374;28;20462;-62
2022/01/11 00:16:03;;;;;;;44.70;22.90;;;3.50;99.90;;;;;;5034942;28;20536;-62
2022/01/11 00:18:31;;;;;;;39.20;19.50;;;3.50;99.90;;;;;;5034304;28;20465;-62
2022/01/11 00:20:58;;;;;;;50.13;23.80;;;3.40;99.90;;;;;;5034318;28;20465;-62
2022/01/11 00:26:12;;;;;;;48.53;22.10;;;3.50;99.90;;;;;;5034103;28;20403;-62
2022/01/11 00:28:39;;;;;;;41.23;21.23;;;3.50;99.90;;;;;;5034085;28;20482;-62
2022/01/11 00:31:08;;;;;;;40.43;20.80;;;3.50;99.90;;;;;;5034147;28;20464;-62
2022/01/11 00:33:42;;;;;;;43.20;21.07;;;3.60;99.90;;;;;;5034044;28;20843;-62
2022/01/11 00:36:13;;;;;;;38.60;19.83;;;3.60;99.90;;;;;;5033781;28;20500;-62
2022/01/11 00:38:42;;;;;;;39.33;19.33;;;3.70;99.90;;;;;;5033376;28;20439;-62
2022/01/11 00:41:13;;;;;;;45.87;22.00;;;3.70;99.90;;;;;;5034167;28;20529;-62
2022/01/11 00:43:44;;;;;;;36.83;19.50;;;3.70;99.90;;;;;;5034300;28;20869;-62
2022/01/11 00:46:15;;;;;;;41.60;21.67;;;3.70;99.90;;;;;;5034572;28;20928;-63
2022/01/11 00:48:43;;;;;;;39.00;21.43;;;3.70;99.90;;;;;;5034031;28;20964;-62
2022/01/11 00:51:11;;;;;;;34.10;19.97;;;3.70;99.90;;;;;;5033634;28;20537;-62
2022/01/11 00:53:38;;;;;;;38.60;19.70;;;3.70;99.90;;;;;;5033332;28;20873;-62
2022/01/11 00:56:06;;;;;;;39.37;19.60;;;3.70;99.90;;;;;;5033717;28;20635;-62
2022/01/11 00:58:35;;;;;;;40.20;20.67;;;3.70;99.90;;;;;;5033740;28;20859;-62
2022/01/11 01:01:05;;;;;;;39.33;19.20;;;3.70;99.90;;;;;;5033637;28;20457;-62
2022/01/11 01:03:37;;;;;;;35.40;18.73;;;3.80;99.90;;;;;;5033288;28;21023;-62
2022/01/11 01:06:05;;;;;;;40.90;20.20;;;3.80;99.90;;;;;;5033349;28;20431;-62
2022/01/11 01:08:34;;;;;;;35.40;18.70;;;3.80;99.90;;;;;;5033203;28;21018;-62
2022/01/11 01:11:03;;;;;;;41.93;21.20;;;3.80;99.90;;;;;;5033301;28;20889;-62
2022/01/11 01:13:31;;;;;;;38.83;19.40;;;3.80;99.90;;;;;;5033123;28;20980;-62
2022/01/11 01:16:00;;;;;;;44.03;20.63;;;3.80;99.90;;;;;;5033189;28;21047;-62
2022/01/11 01:18:30;;;;;;;37.33;19.60;;;3.80;99.90;;;;;;5033130;28;20445;-62
2022/01/11 01:20:59;;;;;;;38.70;20.50;;;3.80;99.90;;;;;;5033203;28;20431;-62
2022/01/11 01:23:27;;;;;;;43.80;21.27;;;3.80;99.90;;;;;;5032920;28;20582;-62
2022/01/11 01:25:55;;;;;;;45.90;20.20;;;3.80;99.90;;;;;;5033437;28;20913;-62
2022/01/11 01:28:23;;;;;;;39.50;19.47;;;3.80;99.90;;;;;;5033288;28;20478;-62
2022/01/11 01:30:52;;;;;;;35.67;19.27;;;3.80;99.90;;;;;;5033377;28;20847;-62
2022/01/11 01:33:22;;;;;;;39.20;21.07;;;3.70;99.90;;;;;;5032961;28;20511;-62
2022/01/11 01:35:55;;;;;;;37.07;20.43;;;3.80;99.90;;;;;;5033090;28;20438;-62
2022/01/11 01:38:24;;;;;;;40.10;20.60;;;3.80;99.90;;;;;;5036664;28;20517;-62
2022/01/11 01:40:57;;;;;;;45.60;22.07;;;3.70;99.90;;;;;;5036989;28;20491;-62
2022/01/11 01:43:27;;;;;;;37.13;19.97;;;3.80;99.90;;;;;;5036923;28;20976;-62
2022/01/11 01:45:58;;;;;;;40.97;21.37;;;3.80;99.90;;;;;;5036933;28;20442;-62
2022/01/11 01:48:28;;;;;;;40.93;21.13;;;3.80;99.90;;;;;;5036807;28;20817;-62
2022/01/11 01:50:56;;;;;;;39.53;19.47;;;3.80;99.90;;;;;;5037095;28;20450;-62
2022/01/11 01:53:24;;;;;;;38.87;21.83;;;3.90;99.90;;;;;;5036654;28;20466;-62
2022/01/11 01:55:52;;;;;;;38.40;21.17;;;3.90;99.90;;;;;;5036721;28;20944;-62
2022/01/11 01:58:20;;;;;;;39.13;20.80;;;3.90;99.90;;;;;;5036995;28;20445;-62
2022/01/11 02:00:54;;;;;;;45.50;21.93;;;3.90;99.90;;;;;;5036592;28;20450;-62
2022/01/11 02:03:26;;;;;;;44.17;24.77;;;3.90;99.90;;;;;;5036878;28;20589;-62
2022/01/11 02:05:57;;;;;;;43.30;22.10;;;3.90;99.90;;;;;;5036872;28;20426;-62
2022/01/11 02:08:26;;;;;;;52.37;24.50;;;3.90;99.90;;;;;;5036479;28;20454;-62
2022/01/11 02:10:54;;;;;;;43.67;21.40;;;3.90;99.90;;;;;;5036430;28;20929;-62
2022/01/11 02:13:22;;;;;;;52.03;25.33;;;3.80;99.90;;;;;;5036311;28;20473;-62
2022/01/11 02:15:51;;;;;;;50.53;25.97;;;3.80;99.90;;;;;;5036622;28;20450;-62
2022/01/11 02:18:25;;;;;;;48.53;26.07;;;3.80;99.90;;;;;;5036615;28;20446;-62
2022/01/11 02:20:58;;;;;;;51.57;25.10;;;3.70;99.90;;;;;;5036184;28;20484;-62
2022/01/11 02:23:30;;;;;;;49.87;26.17;;;3.60;99.90;;;;;;5036205;28;20481;-62
2022/01/11 02:25:59;;;;;;;52.57;24.60;;;3.60;99.90;;;;;;5036558;28;20430;-62
2022/01/11 02:28:30;;;;;;;56.23;24.77;;;3.60;99.90;;;;;;5036026;28;20509;-62
2022/01/11 02:31:07;;;;;;;51.30;23.47;;;3.50;99.90;;;;;;5036074;28;20423;-62
2022/01/11 02:33:37;;;;;;;59.60;24.00;;;3.50;99.90;;;;;;5036266;28;20469;-62
2022/01/11 02:36:07;;;;;;;53.77;24.70;;;3.50;99.90;;;;;;5036280;28;20443;-62
2022/01/11 02:38:35;;;;;;;49.43;25.33;;;3.40;99.90;;;;;;5035962;28;20508;-62
2022/01/11 02:41:05;;;;;;;49.70;24.13;;;3.40;99.90;;;;;;5035904;28;20454;-62
2022/01/11 02:43:33;;;;;;;41.37;22.40;;;3.30;99.90;;;;;;5036064;28;20466;-62
2022/01/11 02:46:01;;;;;;;45.30;24.13;;;3.30;99.90;;;;;;5035818;28;20453;-62
2022/01/11 02:48:30;;;;;;;47.93;25.40;;;3.20;99.90;;;;;;5035729;28;20446;-62
2022/01/11 02:50:58;;;;;;;51.17;25.90;;;3.30;99.90;;;;;;5035684;28;20454;-62
2022/01/11 02:53:26;;;;;;;60.20;27.10;;;3.30;99.90;;;;;;5035605;28;20462;-62
2022/01/11 02:55:54;;;;;;;51.13;25.27;;;3.30;99.90;;;;;;5035613;28;20462;-62
2022/01/11 02:58:21;;;;;;;55.60;25.00;;;3.30;99.90;;;;;;5035562;28;20478;-62
2022/01/11 03:00:49;;;;;;;52.17;25.67;;;3.30;99.90;;;;;;5035490;28;20458;-62
2022/01/11 03:03:26;;;;;;;54.77;24.30;;;3.40;99.90;;;;;;5035642;28;20482;-62
2022/01/11 03:09:17;;;;;;;50.40;24.77;;;3.40;99.90;;;;;;5035458;28;20466;-62
2022/01/11 03:11:47;;;;;;;48.10;24.90;;;3.40;99.90;;;;;;5035369;28;20457;-62
2022/01/11 03:14:15;;;;;;;48.07;26.43;;;3.40;99.90;;;;;;5035223;28;20474;-62
2022/01/11 03:16:44;;;;;;;55.90;27.97;;;3.30;99.90;;;;;;5035219;28;20508;-62
2022/01/11 03:19:12;;;;;;;51.37;25.53;;;3.30;99.90;;;;;;5035224;28;20449;-62
2022/01/11 03:21:39;;;;;;;56.47;25.60;;;3.30;99.90;;;;;;5035489;28;20442;-62
2022/01/11 03:24:10;;;;;;;53.50;25.60;;;3.30;99.90;;;;;;5034953;28;20485;-62
2022/01/11 03:26:40;;;;;;;52.47;27.53;;;3.30;99.90;;;;;;5035197;28;20411;-62
2022/01/11 03:29:07;;;;;;;52.43;24.10;;;3.30;99.90;;;;;;5034970;28;20482;-62
2022/01/11 03:31:36;;;;;;;52.97;25.90;;;3.30;99.90;;;;;;5035304;28;20462;-62
2022/01/11 03:34:06;;;;;;;53.73;27.40;;;3.40;99.90;;;;;;5034859;28;20466;-62
2022/01/11 03:36:33;;;;;;;52.27;26.70;;;3.40;99.90;;;;;;5035638;28;20500;-62
2022/01/11 03:39:01;;;;;;;54.87;28.37;;;3.40;99.90;;;;;;5034951;28;20500;-62
2022/01/11 03:41:30;;;;;;;53.57;27.70;;;3.50;99.90;;;;;;5034837;28;20478;-62
2022/01/11 03:43:59;;;;;;;56.70;27.97;;;3.50;99.90;;;;;;5035036;28;20466;-62
2022/01/11 03:46:26;;;;;;;53.73;26.30;;;3.50;99.90;;;;;;5035550;28;20488;-63
2022/01/11 03:48:54;;;;;;;55.80;24.80;;;3.50;99.90;;;;;;5034999;28;20482;-62
2022/01/11 03:51:21;;;;;;;47.93;23.20;;;3.50;99.90;;;;;;5034690;28;20442;-62
2022/01/11 03:53:55;;;;;;;53.77;26.17;;;3.50;99.90;;;;;;5034923;28;20470;-62
2022/01/11 03:56:26;;;;;;;50.53;24.90;;;3.50;99.90;;;;;;5034628;28;20866;-63
2022/01/11 03:58:54;;;;;;;55.23;25.80;;;3.50;99.90;;;;;;5034296;28;20466;-62
2022/01/11 04:01:25;;;;;;;55.93;25.97;;;3.50;99.90;;;;;;5033971;28;20457;-62
2022/01/11 04:03:53;;;;;;;54.33;25.20;;;3.50;99.90;;;;;;5034351;28;20466;-62
2022/01/11 04:06:23;;;;;;;53.00;25.80;;;3.50;99.90;;;;;;5034260;28;20451;-62
2022/01/11 04:08:51;;;;;;;55.20;25.83;;;3.40;99.90;;;;;;5034153;28;20867;-62
2022/01/11 04:11:31;;;;;;;55.57;27.40;;;3.40;99.90;;;;;;5034212;28;20450;-62
2022/01/11 04:13:59;;;;;;;61.60;26.47;;;3.40;99.90;;;;;;5034225;28;20454;-62
2022/01/11 04:16:28;;;;;;;58.97;26.23;;;3.50;99.90;;;;;;5034321;28;20454;-62
2022/01/11 04:18:55;;;;;;;57.00;25.50;;;3.40;99.90;;;;;;5034347;28;20473;-62
2022/01/11 04:21:23;;;;;;;49.37;26.00;;;3.40;99.90;;;;;;5034334;28;20441;-62
2022/01/11 04:23:55;;;;;;;45.83;24.00;;;3.40;99.90;;;;;;5033778;28;20471;-62
2022/01/11 04:26:25;;;;;;;57.07;26.43;;;3.40;99.90;;;;;;5034260;28;20435;-62
2022/01/11 04:28:55;;;;;;;60.77;29.53;;;3.40;99.90;;;;;;5033830;28;20470;-62
2022/01/11 04:31:24;;;;;;;50.43;23.93;;;3.40;99.90;;;;;;5034380;28;20441;-62
2022/01/11 04:33:53;;;;;;;51.40;27.07;;;3.40;99.90;;;;;;5033701;28;20516;-62
2022/01/11 04:36:21;;;;;;;58.27;27.27;;;3.40;99.90;;;;;;5033719;28;20452;-62
2022/01/11 04:38:50;;;;;;;58.67;26.63;;;3.40;99.90;;;;;;5033738;28;20441;-62
2022/01/11 04:41:21;;;;;;;52.83;25.90;;;3.40;99.90;;;;;;5033650;28;20455;-62
2022/01/11 04:43:55;;;;;;;54.97;26.60;;;3.40;99.90;;;;;;5033629;28;20474;-62
2022/01/11 04:46:22;;;;;;;60.30;29.20;;;3.50;99.90;;;;;;5033628;28;20426;-62
2022/01/11 04:48:52;;;;;;;59.77;26.50;;;3.50;99.90;;;;;;5033436;28;20454;-62
2022/01/11 04:51:20;;;;;;;62.60;29.77;;;3.50;99.90;;;;;;5033821;28;20994;-62
2022/01/11 04:53:47;;;;;;;54.90;26.97;;;3.50;99.90;;;;;;5033428;28;20470;-62
2022/01/11 04:56:17;;;;;;;57.50;26.70;;;3.50;99.90;;;;;;5033471;28;20453;-62
2022/01/11 04:58:47;;;;;;;56.67;24.93;;;3.50;99.90;;;;;;5033444;28;20450;-62
2022/01/11 05:01:14;;;;;;;57.90;27.30;;;3.40;99.90;;;;;;5033432;28;20446;-62
2022/01/11 05:03:42;;;;;;;53.40;25.70;;;3.30;99.90;;;;;;5033373;28;20520;-62
2022/01/11 05:06:11;;;;;;;51.63;25.37;;;3.30;99.90;;;;;;5033661;28;20483;-62
2022/01/11 05:08:38;;;;;;;52.43;25.97;;;3.30;99.90;;;;;;5033456;28;20828;-62
2022/01/11 05:11:06;;;;;;;61.03;26.87;;;3.30;99.90;;;;;;5033453;28;20486;-62
2022/01/11 05:13:34;;;;;;;52.13;24.87;;;3.30;99.90;;;;;;5033436;28;20462;-63
2022/01/11 05:16:04;;;;;;;56.03;26.40;;;3.30;99.90;;;;;;5033624;28;20537;-62
2022/01/11 05:18:35;;;;;;;62.73;25.50;;;3.20;99.90;;;;;;5033427;28;20430;-63
2022/01/11 05:21:03;;;;;;;57.00;25.93;;;3.20;99.90;;;;;;5033400;28;20435;-63
2022/01/11 05:23:34;;;;;;;51.20;25.50;;;3.20;99.90;;;;;;5033129;28;20474;-63
2022/01/11 05:26:02;;;;;;;54.87;26.37;;;3.20;99.90;;;;;;5033239;28;20481;-63
2022/01/11 05:28:30;;;;;;;62.03;27.60;;;3.20;99.90;;;;;;5033375;28;20442;-63
2022/01/11 05:30:57;;;;;;;54.90;25.47;;;3.30;99.90;;;;;;5033170;28;20490;-63
2022/01/11 05:33:34;;;;;;;62.60;28.37;;;3.30;99.90;;;;;;5033413;28;20509;-63
2022/01/11 05:36:01;;;;;;;50.43;27.50;;;3.20;99.90;;;;;;5033423;28;20430;-65
2022/01/11 05:38:32;;;;;;;52.23;25.50;;;3.20;99.90;;;;;;5033379;28;20533;-65
2022/01/11 05:41:02;;;;;;;49.00;24.20;;;3.30;99.90;;;;;;5033154;28;20522;-65
2022/01/11 05:43:46;;;;;;;;;;;;;;;;;;;;;
2022/01/11 05:46:14;;;;;;;58.00;27.70;;;3.40;99.90;;;;;;5031493;28;20452;-65
2022/01/11 05:48:44;;;;;;;54.87;27.40;;;3.40;99.90;;;;;;5033153;28;20469;-65
2022/01/11 05:51:15;;;;;;;52.20;25.60;;;3.40;99.90;;;;;;5032884;28;20466;-65
2022/01/11 05:53:47;;;;;;;49.10;24.47;;;3.40;99.90;;;;;;5032775;28;20469;-65
2022/01/11 05:56:15;;;;;;;49.70;25.97;;;3.40;99.90;;;;;;5032861;28;20430;-65
2022/01/11 05:58:42;;;;;;;46.17;25.43;;;3.40;99.90;;;;;;5032738;28;20464;-65
2022/01/11 06:01:15;;;;;;;47.87;25.57;;;3.50;99.90;;;;;;5032555;28;20457;-65
2022/01/11 06:03:42;;;;;;;54.70;25.60;;;3.50;99.90;;;;;;5033072;28;20498;-65
2022/01/11 06:06:10;;;;;;;46.43;24.70;;;3.50;99.90;;;;;;5032960;28;20556;-65
2022/01/11 06:08:37;;;;;;;48.80;24.50;;;3.40;99.90;;;;;;5032694;28;20450;-65
2022/01/11 06:11:06;;;;;;;45.93;25.70;;;3.40;99.90;;;;;;5032925;28;20489;-65
2022/01/11 06:13:35;;;;;;;44.07;21.73;;;3.30;99.90;;;;;;5032545;28;20466;-65
2022/01/11 06:16:02;;;;;;;42.10;22.00;;;3.30;99.90;;;;;;5032890;28;20561;-65
2022/01/11 06:18:32;;;;;;;49.83;24.33;;;3.40;99.90;;;;;;5032588;28;20524;-65
2022/01/11 06:21:00;;;;;;;42.27;22.80;;;3.30;99.90;;;;;;5032601;28;20474;-65
2022/01/11 06:23:27;;;;;;;44.60;24.13;;;3.40;99.90;;;;;;5034674;28;20957;-64
2022/01/11 06:25:54;;;;;;;41.93;22.10;;;3.40;99.90;;;;;;5036203;28;20438;-64
2022/01/11 06:28:24;;;;;;;39.33;21.83;;;3.30;99.90;;;;;;5035989;28;20450;-65
2022/01/11 06:30:54;;;;;;;40.67;21.30;;;3.20;99.90;;;;;;5035956;28;20478;-65
2022/01/11 06:33:21;;;;;;;38.40;21.90;;;3.10;99.90;;;;;;5036256;28;20492;-65
2022/01/11 06:35:51;;;;;;;41.43;21.10;;;3.00;99.90;;;;;;5036383;28;20450;-65
2022/01/11 06:38:18;;;;;;;41.97;20.77;;;2.80;99.90;;;;;;5035964;28;20528;-65
2022/01/11 06:40:45;;;;;;;42.37;22.90;;;2.80;99.90;;;;;;5035950;28;20445;-65
2022/01/11 06:43:13;;;;;;;40.13;21.97;;;2.70;99.90;;;;;;5035895;28;20466;-65
2022/01/11 06:45:42;;;;;;;41.47;21.90;;;2.60;99.90;;;;;;5036419;28;20469;-65
2022/01/11 06:48:10;;;;;;;42.27;22.27;;;2.60;99.90;;;;;;5036712;28;20469;-64
2022/01/11 06:50:37;;;;;;;41.57;23.67;;;2.60;99.90;;;;;;5037468;28;20492;-65
2022/01/11 06:53:05;;;;;;;41.27;22.13;;;2.60;99.90;;;;;;5036647;28;20833;-65
2022/01/11 06:55:32;;;;;;;46.33;21.83;;;2.60;99.90;;;;;;5036634;28;20455;-64
2022/01/11 06:58:00;;;;;;;42.73;22.13;;;2.60;99.90;;;;;;5035741;28;21006;-64
2022/01/11 07:00:28;;;;;;;40.80;21.53;;;2.60;99.90;;;;;;5035566;28;20446;-64
2022/01/11 07:02:59;;;;;;;44.40;23.03;;;2.60;99.90;;;;;;5035917;28;20832;-65
2022/01/11 07:05:30;;;;;;;47.03;23.97;;;2.60;99.90;;;;;;5035800;28;20496;-65
2022/01/11 07:07:57;;;;;;;45.67;22.63;;;2.60;99.90;;;;;;5035829;28;20795;-65
2022/01/11 07:10:25;;;;;;;41.33;22.90;;;2.70;99.90;;;;;;5035335;28;20991;-65
2022/01/11 07:12:52;;;;;;;44.10;24.37;;;2.70;99.90;;;;;;5035584;28;20995;-65
2022/01/11 07:15:20;;;;;;;46.00;23.70;;;2.80;99.90;;;;;;5035544;28;20450;-64
2022/01/11 07:17:48;;;;;;;39.73;22.83;;;2.80;99.90;;;;;;5035210;28;20490;-64
2022/01/11 07:20:17;;;;;;;46.43;24.47;;;2.80;99.90;;;;;;5035406;28;20479;-65
2022/01/11 07:22:44;;;;;;;51.13;25.00;;;2.80;99.90;;;;;;5035353;28;20478;-65
2022/01/11 07:25:13;;;;;;;48.00;22.70;;;2.90;99.90;;;;;;5034949;28;20893;-65
2022/01/11 07:27:43;;;;;;;46.53;23.27;;;2.90;99.90;;;;;;5035000;28;20955;-65
2022/01/11 07:30:13;;;;;;;43.50;23.50;;;2.90;99.90;;;;;;5035245;28;20874;-65
2022/01/11 07:32:41;;;;;;;43.17;23.20;;;2.90;99.90;;;;;;5034916;28;20999;-65
2022/01/11 07:35:09;;;;;;;48.50;26.43;;;3.00;99.90;;;;;;5033849;28;20944;-65
2022/01/11 07:37:38;;;;;;;43.13;24.13;;;3.00;99.90;;;;;;5034823;28;20932;-65
2022/01/11 07:40:07;;;;;;;46.50;23.17;;;3.00;99.90;;;;;;5035263;28;20835;-65
2022/01/11 07:42:34;;;;;;;44.23;24.87;;;3.10;99.90;;;;;;5034719;28;20984;-65
2022/01/11 07:45:04;;;;;;;47.37;24.63;;;3.10;99.90;;;;;;5034708;28;20450;-65
2022/01/11 07:47:32;;;;;;;47.27;25.27;;;3.00;99.90;;;;;;5034925;28;20450;-65
2022/01/11 07:49:59;;;;;;;45.53;24.87;;;3.00;99.90;;;;;;5034549;28;20439;-64
2022/01/11 07:52:27;;;;;;;44.90;23.30;;;3.10;99.90;;;;;;5034829;28;20501;-65
2022/01/11 07:54:57;;;;;;;49.13;25.07;;;3.10;99.90;;;;;;5034895;28;20967;-65
2022/01/11 07:57:24;;;;;;;52.90;23.93;;;3.10;99.90;;;;;;5034455;28;20482;-65
2022/01/11 07:59:52;;;;;;;49.13;23.70;;;3.00;99.90;;;;;;5034399;28;20951;-65
2022/01/11 08:02:20;;;;;;;43.37;23.57;;;3.00;99.90;;;;;;5034726;28;20446;-65
2022/01/11 08:04:47;;;;;;;50.73;25.10;;;2.90;99.90;;;;;;5034627;28;20442;-65
2022/01/11 08:07:15;;;;;;;46.73;24.23;;;2.90;99.90;;;;;;5034545;28;20952;-65
2022/01/11 08:09:42;;;;;;;41.40;22.03;;;2.90;99.90;;;;;;5033937;28;20458;-64
2022/01/11 08:12:17;;;;;;;41.60;22.40;;;2.90;99.90;;;;;;5034069;28;20486;-64
2022/01/11 08:14:48;;;;;;;43.90;22.10;;;2.90;99.90;;;;;;5034523;28;20445;-65
2022/01/11 08:17:18;;;;;;;47.67;23.73;;;2.90;99.90;;;;;;5034509;28;20440;-64
2022/01/11 08:19:46;;;;;;;41.60;22.87;;;2.90;99.90;;;;;;5034090;28;20446;-64
2022/01/11 08:22:13;;;;;;;43.93;23.97;;;2.90;99.90;;;;;;5033873;28;20446;-65
2022/01/11 08:24:41;;;;;;;54.33;25.30;;;3.00;99.90;;;;;;5033829;28;20459;-65
2022/01/11 08:27:11;;;;;;;48.13;24.50;;;3.00;99.90;;;;;;5034274;28;20504;-64
2022/01/11 08:29:39;;;;;;;50.63;23.30;;;3.00;99.90;;;;;;5033925;28;20450;-64
2022/01/11 08:32:08;;;;;;;43.97;22.80;;;3.00;99.90;;;;;;5033694;28;20998;-64
2022/01/11 08:34:35;;;;;;;47.17;24.70;;;3.10;99.90;;;;;;5033747;28;20485;-64
2022/01/11 08:37:04;;;;;;;46.97;26.37;;;3.20;99.90;;;;;;5033361;28;20458;-65
2022/01/11 08:39:32;;;;;;;45.50;24.60;;;3.20;99.90;;;;;;5034043;28;20465;-64
2022/01/11 08:41:59;;;;;;;42.73;23.33;;;3.30;99.90;;;;;;5034000;28;20799;-64
2022/01/11 08:44:28;;;;;;;37.07;20.30;;;3.30;99.90;;;;;;5033603;28;20473;-65
2022/01/11 08:46:56;;;;;;;38.60;19.97;;;3.40;99.90;;;;;;5033387;28;20457;-64
2022/01/11 08:49:26;;;;;;;32.27;19.50;;;3.40;99.90;;;;;;5033869;28;20625;-65
2022/01/11 08:51:56;;;;;;;36.87;21.33;;;3.40;99.90;;;;;;5033474;28;20466;-64
2022/01/11 08:54:24;;;;;;;35.97;18.87;;;3.40;99.90;;;;;;5033419;28;20469;-64
2022/01/11 08:56:54;;;;;;;35.30;20.00;;;3.50;99.90;;;;;;5033401;28;20447;-65
2022/01/11 08:59:22;;;;;;;44.50;20.57;;;3.50;99.90;;;;;;5033498;28;20453;-65
2022/01/11 09:01:52;;;;;;;39.70;21.63;;;3.60;99.90;;;;;;5033369;28;20492;-64
2022/01/11 09:04:20;;;;;;;42.00;22.40;;;3.60;99.90;;;;;;5033389;28;20477;-65
2022/01/11 09:06:48;;;;;;;48.83;22.93;;;3.60;99.90;;;;;;5033253;28;20447;-64
2022/01/11 09:09:17;;;;;;;43.57;24.07;;;3.60;99.90;;;;;;5033314;28;20521;-65
2022/01/11 09:11:45;;;;;;;39.90;23.00;;;3.70;99.90;;;;;;5033157;28;20497;-64
2022/01/11 09:14:13;;;;;;;42.63;22.90;;;3.70;99.90;;;;;;5033141;28;20474;-65
2022/01/11 09:16:41;;;;;;;44.67;22.83;;;3.80;99.90;;;;;;5033197;28;20446;-65
2022/01/11 09:19:10;;;;;;;42.63;24.10;;;3.80;99.90;;;;;;5033452;28;20454;-65
2022/01/11 09:21:40;;;;;;;41.00;21.53;;;3.80;99.90;;;;;;5033096;28;20446;-64
2022/01/11 09:24:08;;;;;;;40.70;22.87;;;3.80;99.90;;;;;;5032846;28;20482;-65
2022/01/11 09:26:37;;;;;;;46.97;23.23;;;3.90;99.90;;;;;;5033016;28;20446;-65
2022/01/11 09:29:04;;;;;;;37.47;22.57;;;4.00;99.90;;;;;;5033088;28;20455;-64
2022/01/11 09:31:36;;;;;;;37.57;24.10;;;4.00;99.90;;;;;;5032919;28;20485;-64
2022/01/11 09:34:04;;;;;;;44.30;24.87;;;4.10;99.90;;;;;;5033002;28;20505;-65
2022/01/11 09:36:33;;;;;;;48.23;24.37;;;4.10;99.90;;;;;;5033005;28;20454;-65
2022/01/11 09:39:00;;;;;;;39.10;22.83;;;4.20;99.90;;;;;;5033037;28;20426;-65
2022/01/11 09:41:28;;;;;;;42.27;23.93;;;4.30;99.90;;;;;;5032912;28;20449;-65
2022/01/11 09:43:58;;;;;;;44.97;24.10;;;4.30;99.90;;;;;;5032908;28;20458;-65
2022/01/11 09:46:25;;;;;;;47.23;24.30;;;4.40;99.90;;;;;;5032893;28;20492;-65
2022/01/11 09:48:53;;;;;;;49.47;24.90;;;4.40;99.90;;;;;;5033468;28;20454;-65
2022/01/11 09:51:22;;;;;;;41.13;25.43;;;4.40;99.90;;;;;;5033374;28;20486;-65
2022/01/11 09:53:55;;;;;;;47.20;23.67;;;4.50;99.90;;;;;;5033694;28;20549;-66
2022/01/11 09:56:23;;;;;;;41.93;24.80;;;4.50;99.90;;;;;;5033679;28;20521;-65
2022/01/11 09:58:50;;;;;;;38.67;22.37;;;4.60;99.90;;;;;;5035667;28;20541;-65
2022/01/11 10:01:19;;;;;;;35.37;23.07;;;4.60;99.90;;;;;;5036779;28;20447;-65
2022/01/11 10:04:00;;;;;;;42.57;22.60;;;4.70;99.90;;;;;;5036691;28;20473;-65
2022/01/11 10:06:28;;;;;;;44.40;21.90;;;4.80;99.90;;;;;;5036997;28;20549;-65
2022/01/11 10:09:16;;;;;;;37.93;22.77;;;4.70;99.90;;;;;;5036894;28;20533;-65
2022/01/11 10:11:45;;;;;;;44.43;25.70;;;4.60;99.90;;;;;;5036490;28;20462;-65
2022/01/11 10:14:25;;;;;;;44.90;24.33;;;4.50;99.90;;;;;;5036305;28;20462;-65
2022/01/11 10:17:12;;;;;;;42.47;22.13;;;4.60;99.90;;;;;;5036406;28;20442;-65
2022/01/11 10:19:41;;;;;;;38.40;21.20;;;4.70;99.90;;;;;;5036681;28;20430;-66
2022/01/11 10:22:11;;;;;;;36.17;21.80;;;4.70;99.90;;;;;;5036567;28;20502;-66
2022/01/11 10:24:42;;;;;;;40.90;22.50;;;4.80;99.90;;;;;;5036128;28;20557;-66
2022/01/11 10:27:15;;;;;;;43.50;24.63;;;4.90;99.90;;;;;;5035760;28;20465;-66
2022/01/11 10:29:44;;;;;;;39.83;22.53;;;5.00;99.90;;;;;;5036535;28;20466;-66
2022/01/11 10:32:30;;;;;;;43.60;22.27;;;5.10;99.90;;;;;;5035963;28;20576;-66
2022/01/11 10:34:59;;;;;;;38.70;22.57;;;5.10;99.90;;;;;;5036096;28;20431;-67
2022/01/11 10:37:33;;;;;;;45.30;25.63;;;5.20;99.90;;;;;;5035971;28;20446;-67
2022/01/11 10:40:12;;;;;;;41.40;23.80;;;5.40;99.90;;;;;;5036296;28;20514;-67
2022/01/11 10:42:47;;;;;;;42.10;24.73;;;5.50;99.90;;;;;;5035916;28;20545;-67
2022/01/11 10:45:17;;;;;;;50.63;26.30;;;5.50;99.90;;;;;;5035882;28;20438;-67
2022/01/11 10:47:47;;;;;;;46.53;23.90;;;5.60;99.90;;;;;;5036108;28;20473;-66
2022/01/11 10:50:17;;;;;;;42.67;26.00;;;5.70;99.90;;;;;;5035769;28;20446;-66
2022/01/11 10:52:46;;;;;;;47.83;27.63;;;5.70;99.90;;;;;;5035932;28;20486;-66
2022/01/11 10:55:16;;;;;;;49.57;26.50;;;5.70;99.90;;;;;;5035662;28;20815;-66
2022/01/11 10:57:44;;;;;;;43.47;26.50;;;5.70;99.90;;;;;;5035577;28;20434;-66
2022/01/11 11:00:22;;;;;;;40.87;24.13;;;5.70;99.50;;;;;;5035974;28;20442;-65
2022/01/11 11:02:56;;;;;;;46.60;26.97;;;5.70;99.20;;;;;;5035624;28;20516;-65
2022/01/11 11:05:30;;;;;;;42.13;25.63;;;5.80;99.20;;;;;;5035985;28;20912;-65
2022/01/11 11:08:10;;;;;;;48.33;27.10;;;5.80;99.20;;;;;;5035463;28;20439;-66
2022/01/11 11:10:45;;;;;;;49.43;28.90;;;5.90;99.20;;;;;;5035653;28;20423;-66
2022/01/11 11:13:25;;;;;;;50.77;28.77;;;5.90;99.20;;;;;;5035571;28;20485;-66
2022/01/11 11:15:54;;;;;;;55.97;30.23;;;6.00;99.30;;;;;;5035275;28;20437;-66
2022/01/11 11:18:29;;;;;;;54.23;29.00;;;6.10;99.50;;;;;;5035565;28;20446;-66
2022/01/11 11:20:57;;;;;;;51.77;29.30;;;6.20;99.30;;;;;;5035201;28;20525;-66
2022/01/11 11:23:24;;;;;;;60.27;31.17;;;6.30;99.20;;;;;;5034920;28;20474;-66
2022/01/11 11:25:56;;;;;;;54.90;30.27;;;6.40;99.50;;;;;;5035165;28;20521;-66
2022/01/11 11:28:23;;;;;;;57.20;30.30;;;6.50;99.10;;;;;;5035026;28;20435;-66
2022/01/11 11:30:50;;;;;;;55.93;32.40;;;6.60;99.10;;;;;;5035261;28;20435;-65
2022/01/11 11:33:25;;;;;;;48.37;27.90;;;6.70;99.10;;;;;;5034782;28;21002;-66
2022/01/11 11:35:52;;;;;;;53.50;27.83;;;6.90;99.10;;;;;;5034922;28;20431;-65
2022/01/11 11:38:26;;;;;;;54.63;30.10;;;7.00;98.90;;;;;;5034825;28;20453;-66
2022/01/11 11:44:20;;;;;;;48.33;27.67;;;7.40;98.30;;;;;;5035173;28;20418;-69
2022/01/11 11:46:51;;;;;;;57.87;30.57;;;7.60;97.80;;;;;;5034947;28;20435;-69
2022/01/11 11:49:44;;;;;;;60.00;32.63;;;7.80;97.50;;;;;;5034770;28;20951;-71
2022/01/11 11:52:21;;;;;;;49.93;29.17;;;8.10;97.10;;;;;;5035370;28;20879;-70
2022/01/11 11:54:53;;;;;;;51.43;27.60;;;8.70;96.60;;;;;;5034858;28;20435;-71
2022/01/11 11:57:25;;;;;;;53.13;29.40;;;9.20;95.10;;;;;;5034704;28;20427;-70
2022/01/11 11:59:58;;;;;;;51.83;28.70;;;9.60;93.80;;;;;;5034609;28;20427;-67
2022/01/11 12:02:34;;;;;;;43.57;27.83;;;10.00;92.00;;;;;;5034476;28;20913;-67
2022/01/11 12:05:06;;;;;;;46.00;27.30;;;10.30;90.70;;;;;;5034763;28;20481;-67
2022/01/11 12:07:40;;;;;;;44.03;28.00;;;10.50;89.30;;;;;;5034414;28;20422;-67
2022/01/11 12:10:12;;;;;;;38.77;26.07;;;10.60;86.50;;;;;;5034499;28;20996;-67
2022/01/11 12:12:41;;;;;;;42.57;29.13;;;10.80;85.00;;;;;;5034521;28;20577;-67
2022/01/11 12:15:36;;;;;;;43.40;27.50;;;10.80;83.70;;;;;;5034696;28;20872;-66
2022/01/11 12:18:20;;;;;;;43.50;27.10;;;10.90;82.90;;;;;;5034430;28;20506;-67
2022/01/11 12:20:50;;;;;;;43.43;27.73;;;10.90;82.00;;;;;;5033717;28;20430;-67
2022/01/11 12:23:21;;;;;;;42.50;27.10;;;11.00;81.20;;;;;;5034367;28;20486;-67
2022/01/11 12:25:55;;;;;;;39.47;26.83;;;11.10;79.90;;;;;;5034431;28;20431;-67
2022/01/11 12:28:27;;;;;;;43.37;27.37;;;11.10;79.30;;;;;;5034042;28;20431;-67
2022/01/11 12:31:26;;;;;;;46.13;26.97;;;11.00;78.90;;;;;;5033944;28;20484;-67
2022/01/11 12:33:53;;;;;;;40.07;25.80;;;11.00;78.50;;;;;;5033890;28;20454;-67
2022/01/11 12:36:21;;;;;;;47.27;30.97;;;10.80;78.90;;;;;;5033824;28;20991;-67
2022/01/11 12:39:01;;;;;;;46.23;30.07;;;10.80;78.80;;;;;;5033777;28;20450;-67
2022/01/11 12:41:29;;;;;;;44.20;28.80;;;10.90;79.40;;;;;;5034040;28;20437;-67
2022/01/11 12:44:21;;;;;;;48.90;30.90;;;11.10;79.00;;;;;;5033594;28;20469;-67
2022/01/11 12:46:55;;;;;;;44.83;29.13;;;11.50;78.20;;;;;;5033731;28;20434;-67
2022/01/11 12:52:17;;;;;;;46.20;29.80;;;11.90;75.40;;;;;;5033207;28;20529;-67
2022/01/11 12:54:49;;;;;;;41.93;28.87;;;12.00;74.40;;;;;;5034350;28;20446;-67
2022/01/11 12:57:21;;;;;;;50.67;30.30;;;12.10;73.60;;;;;;5035084;28;20431;-67
2022/01/11 12:59:50;;;;;;;48.57;29.90;;;12.10;72.80;;;;;;5034464;28;20430;-67
2022/01/11 13:02:23;;;;;;;49.67;31.33;;;12.00;72.20;;;;;;5034008;28;20439;-67
2022/01/11 13:04:52;;;;;;;53.27;33.60;;;12.00;72.30;;;;;;5033703;28;20431;-67